sensor_id;sensor_type;location;lat;lon;timestamp;P1;durP1;ratioP1;P2;durP2;ratioP2
15913;SDS011;8055;51.930;8.840;2023-10-13T00:04:21;19.98;;;15.52;;
15913;SDS011;8055;51.930;8.840;2023-10-13T00:06:56;20.38;;;14.85;;
15913;SDS011;8055;51.930;8.840;2023-10-13T00:09:22;19.95;;;15.45;;
15913;SDS011;8055;51.930;8.840;2023-10-13T00:11:53;18.13;;;14.10;;
15913;SDS011;8055;51.930;8.840;2023-10-13T00:14:21;22.88;;;16.75;;
15913;SDS011;8055;51.930;8.840;2023-10-13T00:16:47;22.92;;;16.38;;
15913;SDS011;8055;51.930;8.840;2023-10-13T00:19:36;21.73;;;14.63;;
15913;SDS011;8055;51.930;8.840;2023-10-13T00:22:08;25.20;;;17.17;;
15913;SDS011;8055;51.930;8.840;2023-10-13T00:24:34;23.85;;;16.52;;
15913;SDS011;8055;51.930;8.840;2023-10-13T00:27:08;25.08;;;16.27;;
15913;SDS011;8055;51.930;8.840;2023-10-13T00:29:54;24.80;;;16.30;;
15913;SDS011;8055;51.930;8.840;2023-10-13T00:32:42;20.45;;;16.65;;
15913;SDS011;8055;51.930;8.840;2023-10-13T00:35:20;22.02;;;15.77;;
15913;SDS011;8055;51.930;8.840;2023-10-13T00:38:02;22.40;;;16.80;;
15913;SDS011;8055;51.930;8.840;2023-10-13T00:40:29;23.55;;;16.75;;
15913;SDS011;8055;51.930;8.840;2023-10-13T00:42:56;21.73;;;16.38;;
15913;SDS011;8055;51.930;8.840;2023-10-13T00:45:46;19.50;;;15.82;;
15913;SDS011;8055;51.930;8.840;2023-10-13T00:48:25;20.35;;;16.38;;
15913;SDS011;8055;51.930;8.840;2023-10-13T00:50:59;26.27;;;17.90;;
15913;SDS011;8055;51.930;8.840;2023-10-13T00:53:32;26.90;;;17.38;;
15913;SDS011;8055;51.930;8.840;2023-10-13T00:56:03;21.52;;;16.42;;
15913;SDS011;8055;51.930;8.840;2023-10-13T00:58:36;21.63;;;15.80;;
15913;SDS011;8055;51.930;8.840;2023-10-13T01:01:04;22.60;;;16.38;;
15913;SDS011;8055;51.930;8.840;2023-10-13T01:03:54;20.08;;;15.68;;
15913;SDS011;8055;51.930;8.840;2023-10-13T01:06:28;22.95;;;16.33;;
15913;SDS011;8055;51.930;8.840;2023-10-13T01:08:58;20.48;;;16.95;;
15913;SDS011;8055;51.930;8.840;2023-10-13T01:11:39;28.10;;;17.20;;
15913;SDS011;8055;51.930;8.840;2023-10-13T01:14:05;24.08;;;16.67;;
15913;SDS011;8055;51.930;8.840;2023-10-13T01:16:30;26.58;;;18.05;;
15913;SDS011;8055;51.930;8.840;2023-10-13T01:18:56;22.42;;;17.15;;
15913;SDS011;8055;51.930;8.840;2023-10-13T01:21:24;25.65;;;18.20;;
15913;SDS011;8055;51.930;8.840;2023-10-13T01:23:52;23.70;;;17.50;;
15913;SDS011;8055;51.930;8.840;2023-10-13T01:26:18;24.35;;;18.52;;
15913;SDS011;8055;51.930;8.840;2023-10-13T01:28:49;20.40;;;16.95;;
15913;SDS011;8055;51.930;8.840;2023-10-13T01:31:15;21.42;;;17.38;;
15913;SDS011;8055;51.930;8.840;2023-10-13T01:33:52;19.60;;;15.80;;
15913;SDS011;8055;51.930;8.840;2023-10-13T01:36:24;23.23;;;17.40;;
15913;SDS011;8055;51.930;8.840;2023-10-13T01:38:51;29.02;;;18.08;;
15913;SDS011;8055;51.930;8.840;2023-10-13T01:41:18;22.90;;;17.98;;
15913;SDS011;8055;51.930;8.840;2023-10-13T01:43:43;20.83;;;16.67;;
15913;SDS011;8055;51.930;8.840;2023-10-13T01:46:10;22.15;;;17.75;;
15913;SDS011;8055;51.930;8.840;2023-10-13T01:48:38;21.30;;;16.40;;
15913;SDS011;8055;51.930;8.840;2023-10-13T01:51:06;24.17;;;17.42;;
15913;SDS011;8055;51.930;8.840;2023-10-13T01:53:35;22.30;;;16.45;;
15913;SDS011;8055;51.930;8.840;2023-10-13T01:56:01;22.55;;;17.85;;
15913;SDS011;8055;51.930;8.840;2023-10-13T01:58:35;23.67;;;17.35;;
15913;SDS011;8055;51.930;8.840;2023-10-13T02:01:00;21.20;;;17.20;;
15913;SDS011;8055;51.930;8.840;2023-10-13T02:03:27;18.88;;;16.88;;
15913;SDS011;8055;51.930;8.840;2023-10-13T02:05:55;21.33;;;17.58;;
15913;SDS011;8055;51.930;8.840;2023-10-13T02:08:22;22.23;;;18.27;;
15913;SDS011;8055;51.930;8.840;2023-10-13T02:10:58;24.35;;;16.98;;
15913;SDS011;8055;51.930;8.840;2023-10-13T02:13:26;25.27;;;18.20;;
15913;SDS011;8055;51.930;8.840;2023-10-13T02:15:55;24.92;;;18.20;;
15913;SDS011;8055;51.930;8.840;2023-10-13T02:18:22;24.48;;;18.33;;
15913;SDS011;8055;51.930;8.840;2023-10-13T02:20:52;25.25;;;19.52;;
15913;SDS011;8055;51.930;8.840;2023-10-13T02:23:25;22.25;;;18.40;;
15913;SDS011;8055;51.930;8.840;2023-10-13T02:25:54;25.25;;;17.77;;
15913;SDS011;8055;51.930;8.840;2023-10-13T02:28:27;22.02;;;17.23;;
15913;SDS011;8055;51.930;8.840;2023-10-13T02:30:55;23.40;;;17.52;;
15913;SDS011;8055;51.930;8.840;2023-10-13T02:33:22;24.00;;;18.23;;
15913;SDS011;8055;51.930;8.840;2023-10-13T02:35:58;23.95;;;17.52;;
15913;SDS011;8055;51.930;8.840;2023-10-13T02:38:24;22.25;;;16.77;;
15913;SDS011;8055;51.930;8.840;2023-10-13T02:40:58;18.98;;;16.98;;
15913;SDS011;8055;51.930;8.840;2023-10-13T02:43:30;21.58;;;17.73;;
15913;SDS011;8055;51.930;8.840;2023-10-13T02:45:58;20.35;;;17.00;;
15913;SDS011;8055;51.930;8.840;2023-10-13T02:48:28;23.50;;;16.98;;
15913;SDS011;8055;51.930;8.840;2023-10-13T02:50:58;18.13;;;15.88;;
15913;SDS011;8055;51.930;8.840;2023-10-13T02:53:30;19.15;;;16.27;;
15913;SDS011;8055;51.930;8.840;2023-10-13T02:55:55;24.27;;;15.93;;
15913;SDS011;8055;51.930;8.840;2023-10-13T02:58:29;20.75;;;15.52;;
15913;SDS011;8055;51.930;8.840;2023-10-13T03:01:04;22.67;;;15.82;;
15913;SDS011;8055;51.930;8.840;2023-10-13T03:03:35;18.48;;;14.80;;
15913;SDS011;8055;51.930;8.840;2023-10-13T03:06:00;19.95;;;15.25;;
15913;SDS011;8055;51.930;8.840;2023-10-13T03:08:25;19.52;;;16.10;;
15913;SDS011;8055;51.930;8.840;2023-10-13T03:10:52;19.30;;;15.52;;
15913;SDS011;8055;51.930;8.840;2023-10-13T03:13:19;20.13;;;14.48;;
15913;SDS011;8055;51.930;8.840;2023-10-13T03:15:45;18.88;;;13.60;;
15913;SDS011;8055;51.930;8.840;2023-10-13T03:18:12;22.23;;;16.35;;
15913;SDS011;8055;51.930;8.840;2023-10-13T03:20:43;20.00;;;15.13;;
15913;SDS011;8055;51.930;8.840;2023-10-13T03:23:08;20.60;;;15.10;;
15913;SDS011;8055;51.930;8.840;2023-10-13T03:25:34;22.17;;;15.43;;
15913;SDS011;8055;51.930;8.840;2023-10-13T03:28:07;19.23;;;16.05;;
15913;SDS011;8055;51.930;8.840;2023-10-13T03:30:36;17.08;;;14.82;;
15913;SDS011;8055;51.930;8.840;2023-10-13T03:33:04;19.80;;;16.23;;
15913;SDS011;8055;51.930;8.840;2023-10-13T03:35:53;18.23;;;15.15;;
15913;SDS011;8055;51.930;8.840;2023-10-13T03:38:19;20.92;;;14.63;;
15913;SDS011;8055;51.930;8.840;2023-10-13T03:40:49;16.50;;;13.48;;
15913;SDS011;8055;51.930;8.840;2023-10-13T03:43:31;19.50;;;14.63;;
15913;SDS011;8055;51.930;8.840;2023-10-13T03:45:58;20.55;;;15.63;;
15913;SDS011;8055;51.930;8.840;2023-10-13T03:48:26;22.17;;;15.15;;
15913;SDS011;8055;51.930;8.840;2023-10-13T03:50:53;19.00;;;14.13;;
15913;SDS011;8055;51.930;8.840;2023-10-13T03:53:39;17.85;;;13.73;;
15913;SDS011;8055;51.930;8.840;2023-10-13T03:56:25;15.68;;;13.50;;
15913;SDS011;8055;51.930;8.840;2023-10-13T03:59:04;18.83;;;13.00;;
15913;SDS011;8055;51.930;8.840;2023-10-13T04:01:50;19.25;;;13.38;;
15913;SDS011;8055;51.930;8.840;2023-10-13T04:04:27;19.38;;;13.15;;
15913;SDS011;8055;51.930;8.840;2023-10-13T04:07:03;17.17;;;13.45;;
15913;SDS011;8055;51.930;8.840;2023-10-13T04:09:35;16.23;;;12.70;;
15913;SDS011;8055;51.930;8.840;2023-10-13T04:12:05;18.25;;;13.45;;
15913;SDS011;8055;51.930;8.840;2023-10-13T04:14:38;15.40;;;12.98;;
15913;SDS011;8055;51.930;8.840;2023-10-13T04:17:11;22.02;;;13.02;;
15913;SDS011;8055;51.930;8.840;2023-10-13T04:19:40;16.15;;;12.02;;
15913;SDS011;8055;51.930;8.840;2023-10-13T04:22:25;17.42;;;11.20;;
15913;SDS011;8055;51.930;8.840;2023-10-13T04:28:17;17.75;;;12.48;;
15913;SDS011;8055;51.930;8.840;2023-10-13T04:30:46;13.82;;;11.48;;
15913;SDS011;8055;51.930;8.840;2023-10-13T04:33:19;15.32;;;11.10;;
15913;SDS011;8055;51.930;8.840;2023-10-13T04:38:52;15.18;;;10.80;;
15913;SDS011;8055;51.930;8.840;2023-10-13T04:41:34;15.55;;;10.82;;
15913;SDS011;8055;51.930;8.840;2023-10-13T04:44:14;12.50;;;10.05;;
15913;SDS011;8055;51.930;8.840;2023-10-13T04:47:00;15.00;;;10.57;;
15913;SDS011;8055;51.930;8.840;2023-10-13T04:49:26;11.63;;;10.25;;
15913;SDS011;8055;51.930;8.840;2023-10-13T04:52:08;14.77;;;10.10;;
15913;SDS011;8055;51.930;8.840;2023-10-13T04:54:41;14.43;;;10.20;;
15913;SDS011;8055;51.930;8.840;2023-10-13T04:57:21;14.18;;;9.60;;
15913;SDS011;8055;51.930;8.840;2023-10-13T05:00:20;13.65;;;10.50;;
15913;SDS011;8055;51.930;8.840;2023-10-13T05:02:46;12.20;;;9.90;;
15913;SDS011;8055;51.930;8.840;2023-10-13T05:05:30;13.45;;;10.13;;
15913;SDS011;8055;51.930;8.840;2023-10-13T05:08:14;12.88;;;9.00;;
15913;SDS011;8055;51.930;8.840;2023-10-13T05:11:02;12.68;;;9.27;;
15913;SDS011;8055;51.930;8.840;2023-10-13T05:14:00;13.65;;;9.73;;
15913;SDS011;8055;51.930;8.840;2023-10-13T05:16:44;11.52;;;8.88;;
15913;SDS011;8055;51.930;8.840;2023-10-13T05:19:28;13.55;;;9.50;;
15913;SDS011;8055;51.930;8.840;2023-10-13T05:22:12;16.30;;;10.13;;
15913;SDS011;8055;51.930;8.840;2023-10-13T05:24:56;11.43;;;8.82;;
15913;SDS011;8055;51.930;8.840;2023-10-13T05:27:40;15.15;;;9.75;;
15913;SDS011;8055;51.930;8.840;2023-10-13T05:30:23;13.00;;;9.27;;
15913;SDS011;8055;51.930;8.840;2023-10-13T05:33:07;15.05;;;9.10;;
15913;SDS011;8055;51.930;8.840;2023-10-13T05:35:58;15.10;;;9.52;;
15913;SDS011;8055;51.930;8.840;2023-10-13T05:38:42;12.25;;;8.45;;
15913;SDS011;8055;51.930;8.840;2023-10-13T05:41:26;9.35;;;5.70;;
15913;SDS011;8055;51.930;8.840;2023-10-13T05:44:10;6.57;;;5.65;;
15913;SDS011;8055;51.930;8.840;2023-10-13T05:46:54;8.40;;;6.20;;
15913;SDS011;8055;51.930;8.840;2023-10-13T05:49:54;9.30;;;6.05;;
15913;SDS011;8055;51.930;8.840;2023-10-13T05:52:30;7.95;;;6.25;;
15913;SDS011;8055;51.930;8.840;2023-10-13T05:55:13;8.13;;;6.90;;
15913;SDS011;8055;51.930;8.840;2023-10-13T05:57:57;11.68;;;7.25;;
15913;SDS011;8055;51.930;8.840;2023-10-13T06:00:41;12.40;;;7.78;;
15913;SDS011;8055;51.930;8.840;2023-10-13T06:03:25;10.30;;;8.00;;
15913;SDS011;8055;51.930;8.840;2023-10-13T06:06:08;12.00;;;8.32;;
15913;SDS011;8055;51.930;8.840;2023-10-13T06:08:56;11.80;;;8.48;;
15913;SDS011;8055;51.930;8.840;2023-10-13T06:11:40;11.57;;;8.18;;
15913;SDS011;8055;51.930;8.840;2023-10-13T06:14:24;14.55;;;8.73;;
15913;SDS011;8055;51.930;8.840;2023-10-13T06:17:07;10.80;;;7.97;;
15913;SDS011;8055;51.930;8.840;2023-10-13T06:19:56;17.02;;;8.00;;
15913;SDS011;8055;51.930;8.840;2023-10-13T06:22:39;13.07;;;8.18;;
15913;SDS011;8055;51.930;8.840;2023-10-13T06:25:23;14.63;;;7.97;;
15913;SDS011;8055;51.930;8.840;2023-10-13T06:28:07;13.82;;;7.68;;
15913;SDS011;8055;51.930;8.840;2023-10-13T06:30:56;14.93;;;8.23;;
15913;SDS011;8055;51.930;8.840;2023-10-13T06:33:22;11.77;;;7.47;;
15913;SDS011;8055;51.930;8.840;2023-10-13T06:35:54;11.95;;;8.05;;
15913;SDS011;8055;51.930;8.840;2023-10-13T06:38:21;13.55;;;7.43;;
15913;SDS011;8055;51.930;8.840;2023-10-13T06:40:48;13.70;;;8.30;;
15913;SDS011;8055;51.930;8.840;2023-10-13T06:43:15;13.57;;;7.53;;
15913;SDS011;8055;51.930;8.840;2023-10-13T06:45:45;12.98;;;7.80;;
15913;SDS011;8055;51.930;8.840;2023-10-13T06:48:25;10.55;;;7.40;;
15913;SDS011;8055;51.930;8.840;2023-10-13T06:50:51;11.52;;;7.50;;
15913;SDS011;8055;51.930;8.840;2023-10-13T06:53:21;11.98;;;7.13;;
15913;SDS011;8055;51.930;8.840;2023-10-13T06:55:47;11.68;;;7.32;;
15913;SDS011;8055;51.930;8.840;2023-10-13T06:58:13;13.52;;;6.68;;
15913;SDS011;8055;51.930;8.840;2023-10-13T07:00:40;12.82;;;6.55;;
15913;SDS011;8055;51.930;8.840;2023-10-13T07:03:06;11.70;;;7.10;;
15913;SDS011;8055;51.930;8.840;2023-10-13T07:05:35;13.25;;;6.85;;
15913;SDS011;8055;51.930;8.840;2023-10-13T07:08:07;10.10;;;6.38;;
15913;SDS011;8055;51.930;8.840;2023-10-13T07:10:34;10.88;;;6.10;;
15913;SDS011;8055;51.930;8.840;2023-10-13T07:13:19;12.10;;;6.65;;
15913;SDS011;8055;51.930;8.840;2023-10-13T07:15:45;9.77;;;6.72;;
15913;SDS011;8055;51.930;8.840;2023-10-13T07:18:11;11.82;;;6.70;;
15913;SDS011;8055;51.930;8.840;2023-10-13T07:20:39;9.45;;;6.03;;
15913;SDS011;8055;51.930;8.840;2023-10-13T07:25:51;11.65;;;6.57;;
15913;SDS011;8055;51.930;8.840;2023-10-13T07:28:20;11.90;;;6.07;;
15913;SDS011;8055;51.930;8.840;2023-10-13T07:30:46;10.80;;;5.97;;
15913;SDS011;8055;51.930;8.840;2023-10-13T07:33:34;8.80;;;5.38;;
15913;SDS011;8055;51.930;8.840;2023-10-13T07:36:04;12.35;;;5.85;;
15913;SDS011;8055;51.930;8.840;2023-10-13T07:38:41;7.88;;;5.40;;
15913;SDS011;8055;51.930;8.840;2023-10-13T07:41:08;11.32;;;5.60;;
15913;SDS011;8055;51.930;8.840;2023-10-13T07:43:34;8.93;;;5.47;;
15913;SDS011;8055;51.930;8.840;2023-10-13T07:46:02;12.32;;;5.97;;
15913;SDS011;8055;51.930;8.840;2023-10-13T07:51:03;10.18;;;5.60;;
15913;SDS011;8055;51.930;8.840;2023-10-13T07:53:35;6.75;;;4.90;;
15913;SDS011;8055;51.930;8.840;2023-10-13T07:56:03;8.98;;;5.30;;
15913;SDS011;8055;51.930;8.840;2023-10-13T07:58:30;12.52;;;5.50;;
15913;SDS011;8055;51.930;8.840;2023-10-13T08:00:59;12.45;;;5.60;;
15913;SDS011;8055;51.930;8.840;2023-10-13T08:06:02;10.63;;;4.90;;
15913;SDS011;8055;51.930;8.840;2023-10-13T08:08:31;12.43;;;5.25;;
15913;SDS011;8055;51.930;8.840;2023-10-13T08:11:06;7.78;;;4.90;;
15913;SDS011;8055;51.930;8.840;2023-10-13T08:13:36;8.60;;;5.20;;
15913;SDS011;8055;51.930;8.840;2023-10-13T08:16:12;10.95;;;5.25;;
15913;SDS011;8055;51.930;8.840;2023-10-13T08:18:46;8.65;;;4.80;;
15913;SDS011;8055;51.930;8.840;2023-10-13T08:21:14;8.18;;;4.47;;
15913;SDS011;8055;51.930;8.840;2023-10-13T08:23:43;6.00;;;4.30;;
15913;SDS011;8055;51.930;8.840;2023-10-13T08:26:24;8.13;;;4.20;;
15913;SDS011;8055;51.930;8.840;2023-10-13T08:29:02;6.88;;;4.13;;
15913;SDS011;8055;51.930;8.840;2023-10-13T08:31:43;9.93;;;4.82;;
15913;SDS011;8055;51.930;8.840;2023-10-13T08:34:31;11.00;;;4.50;;
15913;SDS011;8055;51.930;8.840;2023-10-13T08:37:26;8.77;;;3.80;;
15913;SDS011;8055;51.930;8.840;2023-10-13T08:39:56;6.47;;;3.92;;
15913;SDS011;8055;51.930;8.840;2023-10-13T08:42:31;7.40;;;4.43;;
15913;SDS011;8055;51.930;8.840;2023-10-13T08:45:23;9.70;;;3.88;;
15913;SDS011;8055;51.930;8.840;2023-10-13T08:47:49;5.88;;;4.15;;
15913;SDS011;8055;51.930;8.840;2023-10-13T08:50:22;8.43;;;4.32;;
15913;SDS011;8055;51.930;8.840;2023-10-13T08:53:07;9.52;;;3.88;;
15913;SDS011;8055;51.930;8.840;2023-10-13T08:55:52;7.90;;;4.18;;
15913;SDS011;8055;51.930;8.840;2023-10-13T08:58:27;6.82;;;3.70;;
15913;SDS011;8055;51.930;8.840;2023-10-13T09:01:12;6.65;;;3.65;;
15913;SDS011;8055;51.930;8.840;2023-10-13T09:03:41;5.93;;;3.72;;
15913;SDS011;8055;51.930;8.840;2023-10-13T09:06:12;9.23;;;3.72;;
15913;SDS011;8055;51.930;8.840;2023-10-13T09:08:45;9.15;;;3.90;;
15913;SDS011;8055;51.930;8.840;2023-10-13T09:11:33;11.32;;;3.97;;
15913;SDS011;8055;51.930;8.840;2023-10-13T09:14:14;16.25;;;4.85;;
15913;SDS011;8055;51.930;8.840;2023-10-13T09:17:02;11.55;;;4.35;;
15913;SDS011;8055;51.930;8.840;2023-10-13T09:19:54;12.65;;;4.88;;
15913;SDS011;8055;51.930;8.840;2023-10-13T09:22:23;11.40;;;4.57;;
15913;SDS011;8055;51.930;8.840;2023-10-13T09:24:58;14.52;;;5.43;;
15913;SDS011;8055;51.930;8.840;2023-10-13T09:27:27;7.55;;;4.35;;
15913;SDS011;8055;51.930;8.840;2023-10-13T09:29:57;13.43;;;5.25;;
15913;SDS011;8055;51.930;8.840;2023-10-13T09:32:48;15.18;;;5.47;;
15913;SDS011;8055;51.930;8.840;2023-10-13T09:35:27;11.80;;;5.43;;
15913;SDS011;8055;51.930;8.840;2023-10-13T09:37:53;15.73;;;5.68;;
15913;SDS011;8055;51.930;8.840;2023-10-13T09:40:23;13.85;;;5.10;;
15913;SDS011;8055;51.930;8.840;2023-10-13T09:43:14;21.40;;;5.95;;
15913;SDS011;8055;51.930;8.840;2023-10-13T09:45:45;14.65;;;5.28;;
15913;SDS011;8055;51.930;8.840;2023-10-13T09:48:32;17.77;;;5.60;;
15913;SDS011;8055;51.930;8.840;2023-10-13T09:51:01;13.95;;;5.13;;
15913;SDS011;8055;51.930;8.840;2023-10-13T09:53:30;14.65;;;5.30;;
15913;SDS011;8055;51.930;8.840;2023-10-13T09:56:06;12.77;;;5.43;;
15913;SDS011;8055;51.930;8.840;2023-10-13T09:58:38;16.35;;;5.63;;
15913;SDS011;8055;51.930;8.840;2023-10-13T10:01:28;14.10;;;5.30;;
15913;SDS011;8055;51.930;8.840;2023-10-13T10:04:08;16.25;;;5.43;;
15913;SDS011;8055;51.930;8.840;2023-10-13T10:06:38;14.38;;;5.85;;
15913;SDS011;8055;51.930;8.840;2023-10-13T10:14:44;15.05;;;6.38;;
15913;SDS011;8055;51.930;8.840;2023-10-13T10:17:21;19.77;;;5.68;;
15913;SDS011;8055;51.930;8.840;2023-10-13T10:19:51;16.52;;;6.28;;
15913;SDS011;8055;51.930;8.840;2023-10-13T10:22:27;15.75;;;6.50;;
15913;SDS011;8055;51.930;8.840;2023-10-13T10:25:01;17.17;;;6.13;;
15913;SDS011;8055;51.930;8.840;2023-10-13T10:27:32;12.20;;;5.57;;
15913;SDS011;8055;51.930;8.840;2023-10-13T10:29:58;15.02;;;5.50;;
15913;SDS011;8055;51.930;8.840;2023-10-13T10:32:36;13.57;;;5.13;;
15913;SDS011;8055;51.930;8.840;2023-10-13T10:35:06;19.00;;;6.30;;
15913;SDS011;8055;51.930;8.840;2023-10-13T10:40:00;17.10;;;5.95;;
15913;SDS011;8055;51.930;8.840;2023-10-13T10:42:30;11.53;;;6.37;;
15913;SDS011;8055;51.930;8.840;2023-10-13T10:44:56;15.50;;;6.00;;
15913;SDS011;8055;51.930;8.840;2023-10-13T10:47:23;16.63;;;5.97;;
15913;SDS011;8055;51.930;8.840;2023-10-13T10:50:02;16.15;;;5.95;;
15913;SDS011;8055;51.930;8.840;2023-10-13T10:52:44;17.95;;;5.70;;
15913;SDS011;8055;51.930;8.840;2023-10-13T10:55:12;22.65;;;6.55;;
15913;SDS011;8055;51.930;8.840;2023-10-13T10:57:42;19.80;;;6.53;;
15913;SDS011;8055;51.930;8.840;2023-10-13T11:00:23;14.48;;;6.63;;
15913;SDS011;8055;51.930;8.840;2023-10-13T11:02:55;15.70;;;5.70;;
15913;SDS011;8055;51.930;8.840;2023-10-13T11:05:21;15.27;;;5.50;;
15913;SDS011;8055;51.930;8.840;2023-10-13T11:07:49;20.33;;;5.40;;
15913;SDS011;8055;51.930;8.840;2023-10-13T11:10:16;16.50;;;5.70;;
15913;SDS011;8055;51.930;8.840;2023-10-13T11:12:57;14.23;;;5.57;;
15913;SDS011;8055;51.930;8.840;2023-10-13T11:15:46;16.27;;;5.75;;
15913;SDS011;8055;51.930;8.840;2023-10-13T11:18:13;18.20;;;6.60;;
15913;SDS011;8055;51.930;8.840;2023-10-13T11:20:48;19.23;;;6.07;;
15913;SDS011;8055;51.930;8.840;2023-10-13T11:23:19;16.30;;;5.90;;
15913;SDS011;8055;51.930;8.840;2023-10-13T11:25:57;15.68;;;6.30;;
15913;SDS011;8055;51.930;8.840;2023-10-13T11:28:24;18.33;;;5.45;;
15913;SDS011;8055;51.930;8.840;2023-10-13T11:30:52;18.92;;;6.05;;
15913;SDS011;8055;51.930;8.840;2023-10-13T11:33:21;16.23;;;5.22;;
15913;SDS011;8055;51.930;8.840;2023-10-13T11:35:51;20.10;;;5.60;;
15913;SDS011;8055;51.930;8.840;2023-10-13T11:38:26;21.25;;;6.32;;
15913;SDS011;8055;51.930;8.840;2023-10-13T11:43:30;19.45;;;6.03;;
15913;SDS011;8055;51.930;8.840;2023-10-13T11:46:38;15.95;;;5.68;;
15913;SDS011;8055;51.930;8.840;2023-10-13T11:51:52;15.00;;;5.80;;
15913;SDS011;8055;51.930;8.840;2023-10-13T11:54:27;18.52;;;5.90;;
15913;SDS011;8055;51.930;8.840;2023-10-13T11:56:52;14.07;;;5.60;;
15913;SDS011;8055;51.930;8.840;2023-10-13T11:59:18;18.65;;;5.38;;
15913;SDS011;8055;51.930;8.840;2023-10-13T12:01:44;20.50;;;6.30;;
15913;SDS011;8055;51.930;8.840;2023-10-13T12:04:28;14.88;;;6.40;;
15913;SDS011;8055;51.930;8.840;2023-10-13T12:07:08;16.75;;;6.53;;
15913;SDS011;8055;51.930;8.840;2023-10-13T12:09:49;13.63;;;5.97;;
15913;SDS011;8055;51.930;8.840;2023-10-13T12:12:24;14.95;;;5.90;;
15913;SDS011;8055;51.930;8.840;2023-10-13T12:14:51;17.98;;;5.82;;
15913;SDS011;8055;51.930;8.840;2023-10-13T12:17:28;13.80;;;6.05;;
15913;SDS011;8055;51.930;8.840;2023-10-13T12:20:02;12.73;;;5.65;;
15913;SDS011;8055;51.930;8.840;2023-10-13T12:22:36;18.02;;;6.15;;
15913;SDS011;8055;51.930;8.840;2023-10-13T12:25:05;16.52;;;6.43;;
15913;SDS011;8055;51.930;8.840;2023-10-13T12:27:50;13.32;;;6.53;;
15913;SDS011;8055;51.930;8.840;2023-10-13T12:30:21;12.73;;;6.03;;
15913;SDS011;8055;51.930;8.840;2023-10-13T12:33:23;18.90;;;5.80;;
15913;SDS011;8055;51.930;8.840;2023-10-13T12:35:59;18.95;;;6.80;;
15913;SDS011;8055;51.930;8.840;2023-10-13T12:38:31;20.00;;;7.05;;
15913;SDS011;8055;51.930;8.840;2023-10-13T12:41:19;15.57;;;6.65;;
15913;SDS011;8055;51.930;8.840;2023-10-13T12:44:04;19.75;;;7.15;;
15913;SDS011;8055;51.930;8.840;2023-10-13T12:46:49;16.70;;;6.60;;
15913;SDS011;8055;51.930;8.840;2023-10-13T12:49:47;17.88;;;6.50;;
15913;SDS011;8055;51.930;8.840;2023-10-13T12:52:13;13.60;;;6.32;;
15913;SDS011;8055;51.930;8.840;2023-10-13T12:54:44;19.40;;;6.82;;
15913;SDS011;8055;51.930;8.840;2023-10-13T12:57:23;18.35;;;6.32;;
15913;SDS011;8055;51.930;8.840;2023-10-13T12:59:49;19.75;;;6.38;;
15913;SDS011;8055;51.930;8.840;2023-10-13T13:02:19;24.50;;;7.13;;
15913;SDS011;8055;51.930;8.840;2023-10-13T13:04:45;21.02;;;7.03;;
15913;SDS011;8055;51.930;8.840;2023-10-13T13:07:13;20.92;;;6.32;;
15913;SDS011;8055;51.930;8.840;2023-10-13T13:09:41;19.33;;;6.38;;
15913;SDS011;8055;51.930;8.840;2023-10-13T13:12:07;13.40;;;5.95;;
15913;SDS011;8055;51.930;8.840;2023-10-13T13:14:33;29.15;;;7.10;;
15913;SDS011;8055;51.930;8.840;2023-10-13T13:17:01;15.80;;;6.20;;
15913;SDS011;8055;51.930;8.840;2023-10-13T13:19:33;15.05;;;5.72;;
15913;SDS011;8055;51.930;8.840;2023-10-13T13:22:06;17.30;;;6.15;;
15913;SDS011;8055;51.930;8.840;2023-10-13T13:24:42;19.58;;;6.93;;
15913;SDS011;8055;51.930;8.840;2023-10-13T13:27:11;23.13;;;6.30;;
15913;SDS011;8055;51.930;8.840;2023-10-13T13:29:47;24.00;;;6.82;;
15913;SDS011;8055;51.930;8.840;2023-10-13T13:32:12;15.40;;;6.80;;
15913;SDS011;8055;51.930;8.840;2023-10-13T13:34:44;18.38;;;6.15;;
15913;SDS011;8055;51.930;8.840;2023-10-13T13:37:10;15.25;;;5.90;;
15913;SDS011;8055;51.930;8.840;2023-10-13T13:39:38;13.52;;;6.30;;
15913;SDS011;8055;51.930;8.840;2023-10-13T13:44:34;19.25;;;6.70;;
15913;SDS011;8055;51.930;8.840;2023-10-13T13:47:03;15.82;;;6.60;;
15913;SDS011;8055;51.930;8.840;2023-10-13T13:49:37;14.80;;;6.30;;
15913;SDS011;8055;51.930;8.840;2023-10-13T13:52:11;15.43;;;6.38;;
15913;SDS011;8055;51.930;8.840;2023-10-13T13:54:42;14.93;;;5.97;;
15913;SDS011;8055;51.930;8.840;2023-10-13T13:57:08;12.68;;;5.50;;
15913;SDS011;8055;51.930;8.840;2023-10-13T13:59:34;16.88;;;6.78;;
15913;SDS011;8055;51.930;8.840;2023-10-13T14:02:00;20.88;;;6.70;;
15913;SDS011;8055;51.930;8.840;2023-10-13T14:06:56;17.50;;;5.72;;
15913;SDS011;8055;51.930;8.840;2023-10-13T14:09:22;18.02;;;5.88;;
15913;SDS011;8055;51.930;8.840;2023-10-13T14:11:58;14.68;;;5.78;;
15913;SDS011;8055;51.930;8.840;2023-10-13T14:14:42;19.17;;;5.63;;
15913;SDS011;8055;51.930;8.840;2023-10-13T14:17:14;15.00;;;5.85;;
15913;SDS011;8055;51.930;8.840;2023-10-13T14:19:39;19.80;;;6.07;;
15913;SDS011;8055;51.930;8.840;2023-10-13T14:22:05;13.32;;;5.65;;
15913;SDS011;8055;51.930;8.840;2023-10-13T14:24:37;24.20;;;6.32;;
15913;SDS011;8055;51.930;8.840;2023-10-13T14:27:08;27.90;;;6.10;;
15913;SDS011;8055;51.930;8.840;2023-10-13T14:29:38;20.98;;;6.15;;
15913;SDS011;8055;51.930;8.840;2023-10-13T14:32:11;14.73;;;6.38;;
15913;SDS011;8055;51.930;8.840;2023-10-13T14:34:41;23.67;;;6.67;;
15913;SDS011;8055;51.930;8.840;2023-10-13T14:37:09;19.88;;;6.53;;
15913;SDS011;8055;51.930;8.840;2023-10-13T14:39:51;19.13;;;6.60;;
15913;SDS011;8055;51.930;8.840;2023-10-13T14:42:21;21.17;;;6.15;;
15913;SDS011;8055;51.930;8.840;2023-10-13T14:44:50;24.70;;;6.50;;
15913;SDS011;8055;51.930;8.840;2023-10-13T14:47:21;20.23;;;6.65;;
15913;SDS011;8055;51.930;8.840;2023-10-13T14:49:50;22.63;;;6.80;;
15913;SDS011;8055;51.930;8.840;2023-10-13T14:52:19;23.92;;;7.13;;
15913;SDS011;8055;51.930;8.840;2023-10-13T14:54:45;18.52;;;6.03;;
15913;SDS011;8055;51.930;8.840;2023-10-13T14:57:11;18.05;;;6.75;;
15913;SDS011;8055;51.930;8.840;2023-10-13T14:59:36;18.10;;;7.00;;
15913;SDS011;8055;51.930;8.840;2023-10-13T15:02:04;21.05;;;7.03;;
15913;SDS011;8055;51.930;8.840;2023-10-13T15:04:29;18.73;;;6.43;;
15913;SDS011;8055;51.930;8.840;2023-10-13T15:06:59;18.40;;;5.90;;
15913;SDS011;8055;51.930;8.840;2023-10-13T15:09:27;23.60;;;7.25;;
15913;SDS011;8055;51.930;8.840;2023-10-13T15:11:53;18.90;;;6.28;;
15913;SDS011;8055;51.930;8.840;2023-10-13T15:14:19;16.88;;;5.97;;
15913;SDS011;8055;51.930;8.840;2023-10-13T15:16:48;15.93;;;6.60;;
15913;SDS011;8055;51.930;8.840;2023-10-13T15:19:14;21.83;;;6.82;;
15913;SDS011;8055;51.930;8.840;2023-10-13T15:21:41;22.70;;;7.03;;
15913;SDS011;8055;51.930;8.840;2023-10-13T15:24:08;21.88;;;6.47;;
15913;SDS011;8055;51.930;8.840;2023-10-13T15:29:07;21.52;;;6.18;;
15913;SDS011;8055;51.930;8.840;2023-10-13T15:31:40;16.83;;;6.95;;
15913;SDS011;8055;51.930;8.840;2023-10-13T15:34:12;19.95;;;6.22;;
15913;SDS011;8055;51.930;8.840;2023-10-13T15:36:41;20.70;;;6.78;;
15913;SDS011;8055;51.930;8.840;2023-10-13T15:39:08;16.75;;;7.10;;
15913;SDS011;8055;51.930;8.840;2023-10-13T15:41:35;17.23;;;6.20;;
15913;SDS011;8055;51.930;8.840;2023-10-13T15:44:05;18.35;;;6.30;;
15913;SDS011;8055;51.930;8.840;2023-10-13T15:46:35;24.75;;;7.18;;
15913;SDS011;8055;51.930;8.840;2023-10-13T15:49:02;18.73;;;6.40;;
15913;SDS011;8055;51.930;8.840;2023-10-13T15:51:31;18.38;;;6.18;;
15913;SDS011;8055;51.930;8.840;2023-10-13T15:53:57;16.50;;;6.45;;
15913;SDS011;8055;51.930;8.840;2023-10-13T15:56:24;17.98;;;6.30;;
15913;SDS011;8055;51.930;8.840;2023-10-13T15:58:50;18.08;;;6.32;;
15913;SDS011;8055;51.930;8.840;2023-10-13T16:01:15;18.58;;;6.40;;